Time;durP1;ratioP1;P1;durP2;ratioP2;P2;SDS_P1;SDS_P2;PMS_P1;PMS_P2;Temp;Humidity;BMP_temperature;BMP_pressure;BME280_temperature;BME280_humidity;BME280_pressure;Samples;Min_cycle;Max_cycle;Signal;HPM_P1;HPM_P2
2022/09/22 00:01:08;;;;;;;28.00;11.63;;;19.80;72.90;;;;;;4845275;29;20441;-74
2022/09/22 00:03:36;;;;;;;27.23;10.38;;;19.80;73.00;;;;;;4835483;29;20030;-74
2022/09/22 00:06:10;;;;;;;27.85;11.55;;;19.80;72.80;;;;;;4845771;29;20453;-74
2022/09/22 00:08:38;;;;;;;29.50;11.90;;;19.90;72.80;;;;;;4849471;29;20034;-74
2022/09/22 00:11:07;;;;;;;27.27;10.82;;;19.90;73.00;;;;;;4829690;29;20034;-74
2022/09/22 00:13:35;;;;;;;31.17;11.67;;;19.90;72.90;;;;;;4839455;29;20061;-74
2022/09/22 00:16:01;;;;;;;29.88;10.73;;;19.90;73.00;;;;;;4847958;29;20036;-75
2022/09/22 00:18:28;;;;;;;30.77;10.38;;;19.90;72.80;;;;;;4849046;29;20161;-75
2022/09/22 00:20:54;;;;;;;23.30;9.90;;;19.90;72.80;;;;;;4840617;29;20040;-75
2022/09/22 00:23:25;;;;;;;25.83;10.45;;;19.90;72.80;;;;;;4847534;29;20030;-74
2022/09/22 00:25:50;;;;;;;24.08;9.25;;;19.90;72.70;;;;;;4846841;29;20034;-75
2022/09/22 00:28:19;;;;;;;24.55;10.25;;;19.90;72.80;;;;;;4845225;29;20503;-73
2022/09/22 00:30:44;;;;;;;24.63;10.15;;;19.90;73.00;;;;;;4847644;29;20034;-74
2022/09/22 00:33:10;;;;;;;27.67;11.02;;;19.90;72.90;;;;;;4848410;29;20091;-74
2022/09/22 00:35:37;;;;;;;27.00;10.77;;;19.90;73.10;;;;;;4859116;29;20042;-74
2022/09/22 00:38:04;;;;;;;23.95;10.00;;;19.90;72.80;;;;;;4841267;29;20109;-74
2022/09/22 00:40:32;;;;;;;22.75;9.65;;;19.90;72.90;;;;;;4849785;29;20034;-74
2022/09/22 00:43:19;;;;;;;24.33;10.70;;;19.90;72.90;;;;;;4850045;29;20040;-74
2022/09/22 00:45:53;;;;;;;24.15;9.70;;;19.90;73.20;;;;;;4848250;29;20082;-74
2022/09/22 00:48:22;;;;;;;25.92;10.82;;;19.90;73.40;;;;;;4822950;29;20041;-74
2022/09/22 00:50:50;;;;;;;24.65;9.77;;;19.90;73.50;;;;;;4825514;29;20080;-74
2022/09/22 00:53:17;;;;;;;25.00;9.23;;;19.90;72.80;;;;;;4834584;29;20109;-74
2022/09/22 00:55:52;;;;;;;26.42;10.35;;;19.90;73.10;;;;;;4846611;29;20052;-74
2022/09/22 00:58:24;;;;;;;24.25;9.43;;;19.90;73.40;;;;;;4839718;29;20442;-74
2022/09/22 01:00:50;;;;;;;24.02;9.25;;;19.90;73.00;;;;;;4847353;29;20049;-74
2022/09/22 01:03:20;;;;;;;25.10;9.85;;;19.90;73.10;;;;;;4845709;29;20064;-73
2022/09/22 01:05:49;;;;;;;27.00;9.25;;;19.90;73.80;;;;;;4847118;29;20049;-74
2022/09/22 01:08:16;;;;;;;22.63;9.48;;;19.90;73.70;;;;;;4846329;29;20040;-74
2022/09/22 01:10:42;;;;;;;25.38;10.30;;;19.90;73.60;;;;;;4843047;29;20113;-74
2022/09/22 01:13:17;;;;;;;18.55;9.82;;;19.90;73.60;;;;;;4846938;29;20058;-74
2022/09/22 01:16:08;;;;;;;22.48;9.60;;;19.90;73.60;;;;;;4831146;29;20476;-75
2022/09/22 01:18:52;;;;;;;22.63;9.07;;;19.90;73.30;;;;;;4840498;29;20045;-75
2022/09/22 01:21:24;;;;;;;24.20;9.65;;;19.90;73.90;;;;;;4846615;29;20034;-75
2022/09/22 01:24:08;;;;;;;29.92;9.52;;;19.90;73.70;;;;;;4849609;29;20544;-75
2022/09/22 01:26:50;;;;;;;23.65;9.48;;;19.90;74.30;;;;;;4822648;29;20065;-74
2022/09/22 01:29:40;;;;;;;33.75;9.55;;;19.90;73.60;;;;;;4846687;29;20046;-75
2022/09/22 01:32:26;;;;;;;22.80;9.38;;;19.90;73.90;;;;;;4849906;29;20025;-75
2022/09/22 01:35:01;;;;;;;23.85;9.43;;;19.80;72.70;;;;;;4833606;29;20054;-74
2022/09/22 01:37:36;;;;;;;19.52;8.73;;;19.80;72.50;;;;;;4825912;29;20038;-75
2022/09/22 01:40:36;;;;;;;20.13;8.63;;;19.80;72.30;;;;;;4840587;29;20030;-74
2022/09/22 01:43:20;;;;;;;18.85;8.23;;;19.80;72.20;;;;;;4843123;29;20109;-75
2022/09/22 01:45:47;;;;;;;22.63;8.68;;;19.80;72.00;;;;;;4840053;29;20057;-74
2022/09/22 01:48:28;;;;;;;21.40;8.98;;;19.80;71.90;;;;;;4839749;29;20089;-75
2022/09/22 01:51:07;;;;;;;21.00;8.25;;;19.80;71.90;;;;;;4846849;29;20041;-74
2022/09/22 01:53:42;;;;;;;20.92;8.88;;;19.80;71.90;;;;;;4850096;29;20470;-74
2022/09/22 01:56:12;;;;;;;21.00;8.40;;;19.80;71.70;;;;;;4825069;29;20037;-74
2022/09/22 01:58:44;;;;;;;18.20;8.07;;;19.80;71.90;;;;;;4833974;29;20026;-75
2022/09/22 02:01:15;;;;;;;20.98;8.45;;;19.80;71.80;;;;;;4848082;29;20033;-74
2022/09/22 02:03:48;;;;;;;21.05;8.60;;;19.80;72.20;;;;;;4841341;29;20056;-75
2022/09/22 02:07:01;;;;;;;17.55;8.40;;;19.80;72.40;;;;;;4842153;29;20117;-74
2022/09/22 02:09:29;;;;;;;22.73;8.40;;;19.80;72.00;;;;;;4840263;29;20046;-74
2022/09/22 02:11:57;;;;;;;19.40;8.30;;;19.80;72.00;;;;;;4844604;29;20025;-74
2022/09/22 02:14:24;;;;;;;21.58;8.25;;;19.80;71.90;;;;;;4825953;29;20057;-74
2022/09/22 02:16:52;;;;;;;21.20;7.78;;;19.80;71.80;;;;;;4846148;29;20477;-73
2022/09/22 02:19:31;;;;;;;20.50;8.35;;;19.80;72.10;;;;;;4847529;29;20082;-73
2022/09/22 02:21:57;;;;;;;25.57;8.37;;;19.80;72.10;;;;;;4832884;29;20044;-73
2022/09/22 02:24:36;;;;;;;18.60;8.13;;;19.80;72.30;;;;;;4843399;29;20299;-73
2022/09/22 02:27:10;;;;;;;18.33;7.85;;;19.80;72.10;;;;;;4845284;29;20030;-73
2022/09/22 02:29:41;;;;;;;20.23;8.43;;;19.80;72.10;;;;;;4849793;29;20034;-74
2022/09/22 02:32:12;;;;;;;19.80;8.30;;;19.80;72.20;;;;;;4827644;29;20397;-74
2022/09/22 02:34:39;;;;;;;21.67;7.93;;;19.80;72.10;;;;;;4843736;29;20052;-74
2022/09/22 02:37:07;;;;;;;23.00;8.45;;;19.80;72.10;;;;;;4844144;29;20442;-74
2022/09/22 02:39:41;;;;;;;17.00;7.70;;;19.80;72.50;;;;;;4852460;29;20026;-74
2022/09/22 02:42:35;;;;;;;17.33;7.78;;;19.80;73.00;;;;;;4841975;29;20600;-74
2022/09/22 02:45:04;;;;;;;23.95;8.48;;;19.80;73.10;;;;;;4844087;29;20393;-74
2022/09/22 02:47:36;;;;;;;17.93;7.40;;;19.80;72.60;;;;;;4871960;24;20138;-72
2022/09/22 02:50:08;;;;;;;18.80;7.80;;;19.80;73.10;;;;;;4848230;29;20057;-71
2022/09/22 02:52:36;;;;;;;19.58;7.57;;;19.80;73.00;;;;;;4849232;29;20071;-71
2022/09/22 02:55:02;;;;;;;19.75;7.95;;;19.80;72.90;;;;;;4836436;29;20515;-72
2022/09/22 02:57:28;;;;;;;20.42;7.85;;;19.80;73.00;;;;;;4838170;29;20403;-72
2022/09/22 02:59:53;;;;;;;19.45;7.80;;;19.80;73.00;;;;;;4839163;29;20042;-72
2022/09/22 03:02:19;;;;;;;18.65;7.70;;;19.80;72.90;;;;;;4818385;29;20041;-72
2022/09/22 03:04:45;;;;;;;20.20;7.70;;;19.80;73.10;;;;;;4836808;29;20034;-71
2022/09/22 03:07:11;;;;;;;17.60;7.75;;;19.80;73.10;;;;;;4835862;29;20034;-72
2022/09/22 03:09:36;;;;;;;20.88;7.63;;;19.80;72.70;;;;;;4839281;29;20498;-72
2022/09/22 03:12:02;;;;;;;18.65;7.88;;;19.80;72.70;;;;;;4827849;29;20046;-72
2022/09/22 03:14:28;;;;;;;22.30;7.68;;;19.80;73.20;;;;;;4816444;29;20186;-72
2022/09/22 03:16:54;;;;;;;31.05;8.00;;;19.80;73.00;;;;;;4812473;29;20038;-72
2022/09/22 03:19:19;;;;;;;19.55;7.57;;;19.80;72.90;;;;;;4837333;29;20034;-73
2022/09/22 03:21:45;;;;;;;16.90;7.40;;;19.80;72.80;;;;;;4833010;29;20503;-72
2022/09/22 03:24:11;;;;;;;18.63;6.97;;;19.80;72.70;;;;;;4834442;29;20596;-71
2022/09/22 03:26:37;;;;;;;21.08;7.32;;;19.80;72.90;;;;;;4838023;29;20581;-72
2022/09/22 03:29:03;;;;;;;18.65;7.53;;;19.80;72.90;;;;;;4816385;29;20056;-72
2022/09/22 03:31:28;;;;;;;22.98;7.60;;;19.80;73.00;;;;;;4829173;29;20342;-72
2022/09/22 03:33:54;;;;;;;18.50;7.18;;;19.80;73.10;;;;;;4830048;29;20034;-72
2022/09/22 03:36:20;;;;;;;21.15;7.43;;;19.80;73.10;;;;;;4823762;29;20034;-71
2022/09/22 03:38:46;;;;;;;15.57;7.28;;;19.80;72.90;;;;;;4827378;29;20028;-72
2022/09/22 03:41:12;;;;;;;19.92;7.13;;;19.90;73.00;;;;;;4817623;29;20059;-72
2022/09/22 03:43:38;;;;;;;15.68;6.65;;;19.80;73.00;;;;;;4799067;29;20047;-72
2022/09/22 03:46:03;;;;;;;16.13;7.38;;;19.80;73.00;;;;;;4813738;29;20042;-72
2022/09/22 03:48:30;;;;;;;18.77;7.00;;;19.80;72.90;;;;;;4793430;29;20045;-71
2022/09/22 03:50:56;;;;;;;15.95;6.43;;;19.80;72.90;;;;;;4821152;29;20030;-71
2022/09/22 03:53:23;;;;;;;16.23;7.35;;;19.80;72.80;;;;;;4839424;29;20038;-71
2022/09/22 03:55:49;;;;;;;17.92;6.82;;;19.80;72.90;;;;;;4814637;29;20049;-72
2022/09/22 03:58:16;;;;;;;14.82;6.75;;;19.80;73.20;;;;;;4822570;29;20030;-72
2022/09/22 04:00:41;;;;;;;18.15;7.13;;;19.80;73.30;;;;;;4830683;29;20100;-71
2022/09/22 04:03:07;;;;;;;19.65;6.70;;;19.80;73.10;;;;;;4829469;29;20026;-71
2022/09/22 04:05:33;;;;;;;17.30;6.70;;;19.80;73.00;;;;;;4784071;29;20045;-72
2022/09/22 04:07:59;;;;;;;16.75;6.68;;;19.80;73.00;;;;;;4799948;29;20061;-72
2022/09/22 04:10:25;;;;;;;15.55;6.20;;;19.80;73.10;;;;;;4817892;29;20477;-72
2022/09/22 04:12:51;;;;;;;18.25;7.28;;;19.80;73.10;;;;;;4804398;29;20120;-71
2022/09/22 04:15:17;;;;;;;15.50;6.82;;;19.80;73.10;;;;;;4832423;29;20026;-72
2022/09/22 04:17:45;;;;;;;15.85;7.00;;;19.80;73.10;;;;;;4811844;29;20029;-72
2022/09/22 04:20:11;;;;;;;16.27;7.18;;;19.80;73.70;;;;;;4816900;29;20030;-72
2022/09/22 04:22:37;;;;;;;17.33;6.53;;;19.80;73.00;;;;;;4801641;29;20033;-72
2022/09/22 04:25:05;;;;;;;22.67;7.47;;;19.80;73.00;;;;;;4816316;29;20041;-72
2022/09/22 04:27:31;;;;;;;14.80;5.82;;;19.80;72.90;;;;;;4799939;29;20038;-72
2022/09/22 04:29:56;;;;;;;15.88;6.78;;;19.80;72.90;;;;;;4841127;29;20036;-73
2022/09/22 04:32:22;;;;;;;13.85;6.50;;;19.80;73.00;;;;;;4812776;29;20040;-72
2022/09/22 04:34:49;;;;;;;14.70;6.00;;;19.80;73.20;;;;;;4829218;29;20026;-71
2022/09/22 04:37:14;;;;;;;15.48;6.50;;;19.80;73.10;;;;;;4791821;29;20478;-72
2022/09/22 04:39:40;;;;;;;16.85;6.20;;;19.80;73.30;;;;;;4833130;29;20053;-72
2022/09/22 04:42:07;;;;;;;16.90;6.22;;;19.80;73.10;;;;;;4832840;29;20030;-72
2022/09/22 04:44:33;;;;;;;14.57;5.97;;;19.80;73.00;;;;;;4798020;29;20030;-72
2022/09/22 04:46:59;;;;;;;14.23;6.60;;;19.80;73.30;;;;;;4833152;29;20030;-72
2022/09/22 04:49:25;;;;;;;14.40;6.38;;;19.80;73.30;;;;;;4816704;29;20032;-72
2022/09/22 04:51:51;;;;;;;15.55;5.95;;;19.80;73.20;;;;;;4832729;29;20056;-72
2022/09/22 04:54:16;;;;;;;20.05;6.65;;;19.80;73.30;;;;;;4832951;29;20022;-72
2022/09/22 04:56:43;;;;;;;15.50;6.15;;;19.80;73.40;;;;;;4829499;29;20036;-72
2022/09/22 04:59:09;;;;;;;15.68;6.38;;;19.80;73.50;;;;;;4813275;29;20430;-72
2022/09/22 05:01:35;;;;;;;16.40;6.28;;;19.80;73.60;;;;;;4810517;29;20030;-72
2022/09/22 05:04:01;;;;;;;18.35;6.05;;;19.80;73.60;;;;;;4796281;29;20022;-72
2022/09/22 05:06:27;;;;;;;15.55;6.07;;;19.80;73.70;;;;;;4832341;29;20129;-72
2022/09/22 05:08:52;;;;;;;19.30;6.32;;;19.80;74.40;;;;;;4832607;29;20033;-72
2022/09/22 05:11:22;;;;;;;16.00;6.15;;;19.80;74.30;;;;;;4833037;29;20295;-72
2022/09/22 05:13:49;;;;;;;;;;;19.80;73.80;;;;;;4793177;29;20030;-72
2022/09/22 05:16:15;;;;;;;16.25;6.50;;;19.80;73.50;;;;;;4820102;29;19966;-72
2022/09/22 05:18:41;;;;;;;14.10;5.78;;;19.80;73.90;;;;;;4822113;29;20516;-71
2022/09/22 05:21:08;;;;;;;15.27;5.82;;;19.80;73.80;;;;;;4822622;29;20065;-72
2022/09/22 05:23:35;;;;;;;14.77;6.07;;;19.80;74.20;;;;;;4822429;29;20460;-71
2022/09/22 05:26:01;;;;;;;19.23;5.70;;;19.80;73.60;;;;;;4822189;29;20046;-72
2022/09/22 05:28:28;;;;;;;17.58;6.00;;;19.80;73.70;;;;;;4822209;29;20047;-72
2022/09/22 05:30:54;;;;;;;15.52;6.35;;;19.80;73.50;;;;;;4821393;29;20079;-72
2022/09/22 05:33:19;;;;;;;20.73;6.00;;;19.80;73.20;;;;;;4814530;29;20439;-72
2022/09/22 05:35:45;;;;;;;28.75;5.88;;;19.80;73.70;;;;;;4822386;29;20062;-72
2022/09/22 05:38:11;;;;;;;13.88;5.40;;;19.80;74.10;;;;;;4805836;29;20034;-72
2022/09/22 05:40:37;;;;;;;13.52;5.10;;;19.90;74.10;;;;;;4822010;29;20061;-72
2022/09/22 05:43:02;;;;;;;13.32;5.32;;;20.00;74.60;;;;;;4821985;29;20026;-72
2022/09/22 05:45:28;;;;;;;19.85;6.00;;;20.00;74.80;;;;;;4805624;29;20168;-72
2022/09/22 05:47:54;;;;;;;23.27;6.43;;;20.00;75.30;;;;;;4802571;29;20035;-72
2022/09/22 05:50:22;;;;;;;22.17;6.15;;;20.00;74.80;;;;;;4821072;29;20545;-73
2022/09/22 05:52:48;;;;;;;21.55;6.22;;;20.00;74.30;;;;;;4801730;29;20031;-72
2022/09/22 05:55:14;;;;;;;24.20;5.97;;;20.00;74.20;;;;;;4822342;29;20090;-72
2022/09/22 05:57:42;;;;;;;21.92;6.55;;;20.00;74.00;;;;;;4825697;29;20113;-72
2022/09/22 06:00:09;;;;;;;18.17;5.93;;;20.00;74.20;;;;;;4826046;29;20078;-72
2022/09/22 06:02:38;;;;;;;20.92;5.95;;;20.00;73.80;;;;;;4825554;29;20499;-73
2022/09/22 06:05:04;;;;;;;21.23;5.88;;;19.90;74.00;;;;;;4808895;29;20053;-72
2022/09/22 06:07:30;;;;;;;12.35;5.60;;;19.90;74.20;;;;;;4825252;29;20034;-72
2022/09/22 06:09:55;;;;;;;18.05;6.05;;;19.90;74.10;;;;;;4825094;29;20504;-72
2022/09/22 06:12:21;;;;;;;17.98;6.00;;;19.90;73.60;;;;;;4825166;29;20627;-73
2022/09/22 06:14:47;;;;;;;14.82;5.95;;;19.90;74.10;;;;;;4808933;29;20037;-72
2022/09/22 06:17:13;;;;;;;16.40;5.47;;;19.90;73.70;;;;;;4820626;29;20156;-72
2022/09/22 06:19:39;;;;;;;20.27;5.78;;;19.90;73.90;;;;;;4805546;29;20036;-72
2022/09/22 06:22:07;;;;;;;15.80;5.45;;;19.90;73.60;;;;;;4823993;29;20027;-72
2022/09/22 06:24:33;;;;;;;13.15;5.50;;;19.90;73.70;;;;;;4818114;29;20046;-72
2022/09/22 06:26:59;;;;;;;15.32;5.57;;;19.90;73.90;;;;;;4832144;29;20586;-73
2022/09/22 06:29:25;;;;;;;17.15;5.78;;;19.90;73.80;;;;;;4822021;29;20045;-73
2022/09/22 06:31:51;;;;;;;14.07;5.65;;;19.90;73.00;;;;;;4818873;29;20131;-72
2022/09/22 06:34:17;;;;;;;16.67;5.50;;;19.90;73.70;;;;;;4841493;29;20484;-72
2022/09/22 06:36:44;;;;;;;13.93;5.80;;;19.90;73.30;;;;;;4828944;29;20026;-73
2022/09/22 06:39:10;;;;;;;14.32;5.40;;;19.90;73.50;;;;;;4828155;29;20026;-72
2022/09/22 06:41:36;;;;;;;14.52;5.28;;;19.90;73.50;;;;;;4828567;29;20384;-73
2022/09/22 06:44:04;;;;;;;12.85;5.45;;;19.90;73.50;;;;;;4829253;29;20114;-73
2022/09/22 06:46:32;;;;;;;17.73;5.72;;;19.90;73.50;;;;;;4811435;29;20035;-73
2022/09/22 06:48:59;;;;;;;14.68;6.07;;;19.90;73.00;;;;;;4824430;29;20022;-72
2022/09/22 06:51:31;;;;;;;13.02;5.75;;;19.90;73.50;;;;;;4824437;29;20030;-72
2022/09/22 06:53:59;;;;;;;17.52;6.00;;;19.90;73.90;;;;;;4829173;29;20090;-72
2022/09/22 06:56:26;;;;;;;11.20;5.38;;;19.90;73.70;;;;;;4837462;29;20402;-72
2022/09/22 06:58:54;;;;;;;13.32;5.38;;;19.90;72.90;;;;;;4826331;29;20037;-72
2022/09/22 07:01:21;;;;;;;17.02;5.65;;;19.90;72.80;;;;;;4837947;29;20149;-72
2022/09/22 07:03:47;;;;;;;16.27;5.75;;;20.00;72.60;;;;;;4841845;29;20033;-72
2022/09/22 07:06:17;;;;;;;13.18;5.53;;;20.00;72.50;;;;;;4820911;29;20115;-72
2022/09/22 07:08:47;;;;;;;13.52;5.90;;;20.00;74.30;;;;;;4833455;29;20062;-71
2022/09/22 07:11:16;;;;;;;39.90;7.65;;;20.00;72.10;;;;;;4806219;29;20050;-73
2022/09/22 07:13:44;;;;;;;25.17;7.07;;;20.00;76.10;;;;;;4834689;29;20158;-73
2022/09/22 07:16:15;;;;;;;23.65;5.97;;;20.00;77.50;;;;;;4822925;29;20054;-73
2022/09/22 07:18:46;;;;;;;27.05;6.55;;;20.00;75.50;;;;;;4827398;29;20026;-73
2022/09/22 07:21:21;;;;;;;20.08;6.25;;;20.00;74.50;;;;;;4821767;29;20069;-72
2022/09/22 07:23:51;;;;;;;20.48;6.75;;;20.00;75.60;;;;;;4790731;29;20027;-73
2022/09/22 07:26:25;;;;;;;23.38;6.20;;;20.10;78.00;;;;;;4813855;29;20608;-73
2022/09/22 07:28:58;;;;;;;23.23;6.15;;;20.20;77.80;;;;;;4807779;29;20042;-73
2022/09/22 07:31:25;;;;;;;15.95;5.57;;;20.30;77.30;;;;;;4811054;29;20040;-74
2022/09/22 07:33:52;;;;;;;16.27;5.60;;;20.30;78.10;;;;;;4822950;29;20393;-74
2022/09/22 07:36:21;;;;;;;22.02;6.57;;;20.30;77.90;;;;;;4825298;29;20030;-75
2022/09/22 07:38:50;;;;;;;20.63;6.00;;;20.30;77.00;;;;;;4826889;29;20079;-72
2022/09/22 07:41:21;;;;;;;14.13;5.55;;;20.30;76.20;;;;;;4816206;29;20038;-72
2022/09/22 07:43:52;;;;;;;16.95;5.57;;;20.30;75.80;;;;;;4832204;29;20059;-72
2022/09/22 07:46:18;;;;;;;20.10;5.78;;;20.40;75.90;;;;;;4815601;29;20041;-72
2022/09/22 07:48:46;;;;;;;21.85;5.90;;;20.40;75.60;;;;;;4823902;29;20129;-72
2022/09/22 07:51:18;;;;;;;21.58;5.75;;;20.40;75.40;;;;;;4822735;29;20034;-72
2022/09/22 07:53:45;;;;;;;20.15;5.53;;;20.40;75.00;;;;;;4797642;29;20030;-73
2022/09/22 07:56:14;;;;;;;16.02;4.90;;;20.40;74.50;;;;;;4818119;29;20827;-72
2022/09/22 07:58:44;;;;;;;18.38;5.00;;;20.40;74.00;;;;;;4818511;29;20041;-73
2022/09/22 08:01:11;;;;;;;18.85;5.10;;;20.40;74.20;;;;;;4830913;29;20129;-71
2022/09/22 08:03:36;;;;;;;16.05;5.53;;;20.40;74.00;;;;;;4824107;29;20545;-73
2022/09/22 08:06:09;;;;;;;16.80;4.90;;;20.40;73.90;;;;;;4823909;29;20117;-73
2022/09/22 08:08:37;;;;;;;16.50;4.57;;;20.40;73.90;;;;;;4805758;29;20436;-75
2022/09/22 08:11:16;;;;;;;17.33;4.22;;;20.40;73.70;;;;;;4808158;29;20030;-74
2022/09/22 08:13:47;;;;;;;16.95;5.57;;;20.40;74.10;;;;;;4830531;29;20030;-75
2022/09/22 08:16:13;;;;;;;27.95;9.32;;;20.30;74.10;;;;;;4816131;29;20477;-75
2022/09/22 08:18:39;;;;;;;23.02;14.85;;;20.20;73.70;;;;;;4828402;29;20080;-75
2022/09/22 08:21:08;;;;;;;25.35;13.93;;;20.10;67.90;;;;;;4833532;29;20056;-75
2022/09/22 08:23:34;;;;;;;24.00;13.48;;;20.10;70.90;;;;;;4839001;29;20030;-76
2022/09/22 08:26:06;;;;;;;17.77;8.93;;;20.00;69.30;;;;;;4838823;29;20038;-76
2022/09/22 08:28:32;;;;;;;12.98;7.55;;;20.00;70.40;;;;;;4813110;29;20042;-73
2022/09/22 08:30:59;;;;;;;13.18;6.60;;;20.00;67.40;;;;;;4825179;29;20134;-73
2022/09/22 08:33:25;;;;;;;9.43;5.40;;;20.00;66.40;;;;;;4816273;29;20105;-72
2022/09/22 08:36:02;;;;;;;8.93;5.20;;;20.00;65.70;;;;;;4838629;29;20473;-73
2022/09/22 08:38:29;;;;;;;10.20;4.93;;;20.10;66.00;;;;;;4839300;29;20045;-73
2022/09/22 08:41:12;;;;;;;11.05;5.45;;;20.20;65.50;;;;;;4822131;29;20046;-74
2022/09/22 08:44:00;;;;;;;10.88;4.97;;;20.20;65.90;;;;;;4822444;29;20041;-73
2022/09/22 08:46:32;;;;;;;11.40;4.88;;;20.20;66.30;;;;;;4858433;23;20257;-72
2022/09/22 08:52:18;;;;;;;9.35;4.80;;;20.30;66.80;;;;;;4863097;29;20033;-74
2022/09/22 08:54:45;;;;;;;13.07;4.93;;;20.40;67.20;;;;;;4851155;29;20026;-74
2022/09/22 08:57:35;;;;;;;10.95;4.93;;;20.40;67.40;;;;;;4858034;29;20054;-74
2022/09/22 09:00:14;;;;;;;10.18;5.15;;;20.40;67.80;;;;;;4851967;29;20100;-74
2022/09/22 09:03:01;;;;;;;11.82;4.78;;;20.40;68.10;;;;;;4847349;29;20033;-77
2022/09/22 09:05:39;;;;;;;11.70;4.53;;;20.40;68.20;;;;;;4841033;29;20033;-80
2022/09/22 09:08:14;;;;;;;17.60;5.18;;;20.30;68.10;;;;;;4873075;29;20053;-73
2022/09/22 09:11:11;;;;;;;13.07;5.03;;;20.30;68.40;;;;;;4873839;29;20032;-72
2022/09/22 09:14:04;;;;;;;12.73;6.90;;;20.20;68.30;;;;;;4858376;29;20033;-72
2022/09/22 09:16:39;;;;;;;14.60;6.28;;;20.20;64.80;;;;;;4853338;29;20092;-72
2022/09/22 09:19:10;;;;;;;15.45;6.88;;;20.30;65.00;;;;;;4859671;29;20025;-73
2022/09/22 09:21:40;;;;;;;13.32;6.45;;;20.30;65.10;;;;;;4861778;29;20060;-72
2022/09/22 09:24:19;;;;;;;15.68;6.88;;;20.30;65.50;;;;;;4867355;29;20029;-72
2022/09/22 09:26:48;;;;;;;12.97;5.40;;;20.30;66.00;;;;;;4875799;29;20439;-73
2022/09/22 09:29:20;;;;;;;14.95;5.75;;;20.30;66.30;;;;;;4875850;29;20353;-73
2022/09/22 09:31:52;;;;;;;12.07;5.68;;;20.30;66.80;;;;;;4845709;29;20045;-73
2022/09/22 09:34:22;;;;;;;12.05;5.70;;;20.30;67.10;;;;;;4858048;29;20033;-73
2022/09/22 09:36:54;;;;;;;13.15;6.03;;;20.30;67.50;;;;;;4841350;29;20033;-73
2022/09/22 09:39:29;;;;;;;12.32;5.68;;;20.30;67.60;;;;;;4858589;29;20030;-73
2022/09/22 09:41:56;;;;;;;11.60;6.03;;;20.30;67.80;;;;;;4858238;29;20545;-73
2022/09/22 09:44:37;;;;;;;11.90;5.60;;;20.30;67.70;;;;;;4858682;29;20034;-73
2022/09/22 09:47:40;;;;;;;13.73;5.82;;;20.30;68.00;;;;;;4858206;29;20085;-74
2022/09/22 09:50:09;;;;;;;11.40;5.63;;;20.20;68.20;;;;;;4841720;29;20089;-74
2022/09/22 09:52:37;;;;;;;11.82;5.28;;;20.20;68.30;;;;;;4857930;29;20069;-74
2022/09/22 09:55:24;;;;;;;14.00;5.63;;;20.20;68.20;;;;;;4841863;29;20040;-73
2022/09/22 09:58:04;;;;;;;12.70;5.40;;;20.20;68.30;;;;;;4841572;29;20117;-73
2022/09/22 10:00:30;;;;;;;8.93;5.22;;;20.20;69.00;;;;;;4858423;29;20037;-74
2022/09/22 10:03:14;;;;;;;14.40;5.30;;;20.20;68.90;;;;;;4857711;29;20037;-73
2022/09/22 10:05:42;;;;;;;11.73;5.65;;;20.20;69.00;;;;;;4858197;29;20089;-73
2022/09/22 10:08:19;;;;;;;11.77;5.15;;;20.20;68.70;;;;;;4858068;29;20038;-73
2022/09/22 10:10:46;;;;;;;10.95;5.38;;;20.20;69.10;;;;;;4858398;29;20541;-73
2022/09/22 10:13:13;;;;;;;8.95;5.10;;;20.20;69.10;;;;;;4841036;29;20030;-73
2022/09/22 10:15:41;;;;;;;12.38;4.93;;;20.20;69.40;;;;;;4841671;29;20082;-72
2022/09/22 10:18:25;;;;;;;13.68;5.47;;;20.20;69.60;;;;;;4857883;29;20511;-74
2022/09/22 10:21:14;;;;;;;9.48;5.05;;;20.20;69.60;;;;;;4842210;29;20480;-74
2022/09/22 10:23:41;;;;;;;9.60;5.10;;;20.20;69.90;;;;;;4857743;29;20034;-73
2022/09/22 10:26:31;;;;;;;10.95;5.35;;;20.20;69.80;;;;;;4858095;29;20036;-72
2022/09/22 10:29:11;;;;;;;8.85;4.30;;;20.20;69.60;;;;;;4858243;29;20405;-72
2022/09/22 10:31:39;;;;;;;11.13;4.85;;;20.20;69.70;;;;;;4841451;29;20038;-72
2022/09/22 10:34:26;;;;;;;10.45;5.07;;;20.20;69.70;;;;;;4857595;29;20209;-72
2022/09/22 10:36:52;;;;;;;9.15;5.00;;;20.20;69.80;;;;;;4841475;29;20054;-73
2022/09/22 10:39:19;;;;;;;8.65;4.85;;;20.20;70.20;;;;;;4858118;29;20042;-73
2022/09/22 10:41:47;;;;;;;10.52;5.35;;;20.20;69.80;;;;;;4844476;29;20032;-73
2022/09/22 10:44:17;;;;;;;10.88;5.45;;;20.20;70.50;;;;;;4844290;29;20385;-73
2022/09/22 10:47:05;;;;;;;10.45;5.43;;;20.20;69.80;;;;;;4861553;29;20040;-73
2022/09/22 10:49:49;;;;;;;8.55;4.60;;;20.20;69.90;;;;;;4861111;29;20056;-73
2022/09/22 10:52:29;;;;;;;8.07;4.20;;;20.20;69.90;;;;;;4861097;29;20033;-73
2022/09/22 10:55:31;;;;;;;10.77;4.78;;;20.20;70.50;;;;;;4844315;29;20026;-73
2022/09/22 10:58:03;;;;;;;8.50;4.40;;;20.20;70.10;;;;;;4844253;29;20120;-73
2022/09/22 11:00:33;;;;;;;9.63;5.10;;;20.20;69.90;;;;;;4844416;29;20053;-74
2022/09/22 11:03:17;;;;;;;;;;;20.20;70.00;;;;;;4844680;29;20032;-73
2022/09/22 11:12:17;;;;;;;11.18;5.13;;;20.20;70.30;;;;;;4852424;29;20026;-73
2022/09/22 11:15:06;;;;;;;16.92;5.60;;;20.20;70.70;;;;;;4850956;29;20026;-74
2022/09/22 11:17:39;;;;;;;8.20;4.65;;;20.20;70.70;;;;;;4860532;29;20026;-74
2022/09/22 11:20:25;;;;;;;13.88;6.18;;;20.20;70.40;;;;;;4850300;29;20041;-74
2022/09/22 11:23:26;;;;;;;7.50;4.60;;;20.20;70.10;;;;;;4857705;29;20044;-74
2022/09/22 11:26:06;;;;;;;11.25;5.85;;;20.20;70.10;;;;;;4862635;29;20037;-74
2022/09/22 11:28:59;;;;;;;10.48;5.40;;;20.20;70.20;;;;;;4860030;29;20049;-74
2022/09/22 11:31:47;;;;;;;11.35;5.47;;;20.20;69.90;;;;;;4846647;29;20041;-75
2022/09/22 11:34:22;;;;;;;9.60;5.55;;;20.20;70.00;;;;;;4860904;29;20093;-78
2022/09/22 11:36:54;;;;;;;12.68;5.38;;;20.30;70.20;;;;;;4855545;29;20037;-83
2022/09/22 11:39:58;;;;;;;12.57;5.40;;;20.30;70.20;;;;;;4824648;29;20042;-83
2022/09/22 11:42:46;;;;;;;10.23;4.57;;;20.20;70.20;;;;;;4812984;29;20037;-82
2022/09/22 11:45:44;;;;;;;9.38;4.20;;;20.20;68.00;;;;;;4848930;29;20044;-72
2022/09/22 11:48:31;;;;;;;7.78;3.50;;;20.10;68.60;;;;;;4818931;29;20086;-72
2022/09/22 11:51:21;;;;;;;10.95;4.00;;;20.10;66.10;;;;;;4861112;29;20032;-72
2022/09/22 11:54:00;;;;;;;8.88;3.28;;;20.10;65.80;;;;;;4856613;29;20036;-72
2022/09/22 11:56:28;;;;;;;6.65;3.47;;;20.20;66.50;;;;;;4859179;29;20040;-72
2022/09/22 11:59:01;;;;;;;15.57;3.75;;;20.20;67.10;;;;;;4855789;29;20496;-72
2022/09/22 12:01:34;;;;;;;14.23;3.97;;;20.20;68.30;;;;;;4859054;29;20039;-73
2022/09/22 12:04:09;;;;;;;12.73;4.75;;;20.30;67.60;;;;;;4867508;29;20033;-72
2022/09/22 12:06:43;;;;;;;13.88;3.80;;;20.30;68.40;;;;;;4852986;29;20048;-73
2022/09/22 12:09:33;;;;;;;11.48;3.80;;;20.30;67.80;;;;;;4876976;29;20041;-73
2022/09/22 12:12:01;;;;;;;8.88;3.30;;;20.30;67.50;;;;;;4866977;29;20049;-72
2022/09/22 12:14:28;;;;;;;8.88;4.05;;;20.30;67.90;;;;;;4877686;29;20061;-71
2022/09/22 12:16:59;;;;;;;12.27;3.97;;;20.30;68.10;;;;;;4877520;29;20025;-72
2022/09/22 12:20:04;;;;;;;7.72;3.55;;;20.30;68.10;;;;;;4878206;29;20415;-73
2022/09/22 12:22:50;;;;;;;12.52;4.45;;;20.30;68.20;;;;;;4876426;29;20037;-73
2022/09/22 12:25:43;;;;;;;8.68;3.92;;;20.30;68.30;;;;;;4873174;29;20252;-72
2022/09/22 12:28:23;;;;;;;10.40;3.47;;;20.30;68.40;;;;;;4858883;29;20025;-72
2022/09/22 12:31:14;;;;;;;7.60;3.45;;;20.30;68.50;;;;;;4843040;29;20396;-72
2022/09/22 12:33:55;;;;;;;9.65;3.80;;;20.30;68.50;;;;;;4858953;29;20411;-72
2022/09/22 12:36:29;;;;;;;11.02;3.65;;;20.30;68.60;;;;;;4848669;29;20064;-72
2022/09/22 12:39:16;;;;;;;19.05;3.72;;;20.30;69.00;;;;;;4827329;29;20087;-72
2022/09/22 12:42:04;;;;;;;8.13;3.47;;;20.30;68.70;;;;;;4841730;29;20072;-72
2022/09/22 12:44:35;;;;;;;10.07;3.70;;;20.30;68.90;;;;;;4842704;29;20030;-72
2022/09/22 12:47:23;;;;;;;7.82;3.83;;;20.30;69.00;;;;;;4859116;29;20032;-73
2022/09/22 12:49:55;;;;;;;12.23;3.80;;;20.30;69.00;;;;;;4858803;29;20033;-72
2022/09/22 12:53:04;;;;;;;10.68;4.18;;;20.30;69.00;;;;;;4858985;29;20033;-73
2022/09/22 12:55:40;;;;;;;7.88;3.95;;;20.30;69.00;;;;;;4858733;29;20576;-73
2022/09/22 12:58:37;;;;;;;10.23;3.80;;;20.40;69.00;;;;;;4859141;29;20109;-72
2022/09/22 13:01:32;;;;;;;7.97;3.58;;;20.40;69.00;;;;;;4858685;29;20037;-72
2022/09/22 13:04:11;;;;;;;11.52;4.18;;;20.40;69.00;;;;;;4857786;29;20458;-72
2022/09/22 13:06:50;;;;;;;8.32;3.92;;;20.40;69.10;;;;;;4827124;29;20120;-72
2022/09/22 13:09:28;;;;;;;9.68;3.90;;;20.40;69.10;;;;;;4858804;29;20124;-77
2022/09/22 13:12:10;;;;;;;12.82;4.35;;;20.40;69.20;;;;;;4825115;29;20068;-77
2022/09/22 13:15:00;;;;;;;19.40;9.68;;;20.30;68.20;;;;;;4845400;29;20037;-74